UAE29V OMDB-EDDF
Flight info
| Callsign | UAE29V |
|---|---|
| Flight time | N/A |
| Altitude | 34000 |
| Route | RIDAP M557 TUMAK L602 GADSI M860 KODAV/N0485F360 M860 SEPTU DCT VUSEB M860 NINVA UM860 ODALI UL852 NEGEM DCT MAXOV DCT IRLOX DCT BALUX/N0473F380 DCT TEKNO DCT ABETI DCT TAGAS DCT SUBEN DCT AKINI T161 DEBHI DEBHI1A |
| Aircraft | B77W/H-SDE1E2E3FGHIJ2J3J4J5M1RWXY/LB1D1 |
Departure
| Time | 2026-05-05 12:56 |
|---|---|
| Airport | Dubai International Airport (OMDB) |
Arrival
| Time | N/A |
|---|---|
| Airport | Frankfurt Main Airport (EDDF) |
| Time | Latitude | Longitude | Altitude | Speed | Heading |
|---|---|---|---|---|---|
| 2026-05-05 12:13 | 25.24377 | 55.36930 | 31 ft | 0 kts | 31° |
| 2026-05-05 12:47 | 25.24356 | 55.36916 | 28 ft | 4 kts | 31° |
| 2026-05-05 12:47 | 25.24336 | 55.36902 | 31 ft | 2 kts | 31° |
| 2026-05-05 12:47 | 25.24317 | 55.36887 | 31 ft | 4 kts | 52° |
| 2026-05-05 12:48 | 25.24308 | 55.36868 | 31 ft | 4 kts | 88° |
| 2026-05-05 12:48 | 25.24311 | 55.36846 | 31 ft | 4 kts | 116° |
| 2026-05-05 12:48 | 25.24323 | 55.36822 | 31 ft | 4 kts | 122° |
| 2026-05-05 12:48 | 25.24337 | 55.36797 | 31 ft | 3 kts | 122° |
| 2026-05-05 12:49 | 25.24339 | 55.36793 | 31 ft | 0 kts | 122° |
| 2026-05-05 12:51 | 25.24335 | 55.36800 | 31 ft | 3 kts | 122° |
| 2026-05-05 12:51 | 25.24311 | 55.36844 | 31 ft | 10 kts | 122° |
| 2026-05-05 12:51 | 25.24262 | 55.36930 | 30 ft | 16 kts | 122° |
| 2026-05-05 12:51 | 25.24199 | 55.37043 | 29 ft | 17 kts | 122° |
| 2026-05-05 12:52 | 25.24136 | 55.37156 | 29 ft | 17 kts | 122° |
| 2026-05-05 12:52 | 25.24072 | 55.37269 | 30 ft | 17 kts | 122° |
| 2026-05-05 12:52 | 25.24009 | 55.37381 | 29 ft | 16 kts | 122° |
| 2026-05-05 12:52 | 25.23968 | 55.37488 | 28 ft | 15 kts | 96° |
| 2026-05-05 12:53 | 25.24005 | 55.37592 | 30 ft | 15 kts | 42° |
| 2026-05-05 12:53 | 25.24094 | 55.37655 | 28 ft | 15 kts | 31° |
| 2026-05-05 12:53 | 25.24183 | 55.37716 | 29 ft | 15 kts | 31° |
| 2026-05-05 12:53 | 25.24272 | 55.37776 | 27 ft | 14 kts | 31° |
| 2026-05-05 12:54 | 25.24439 | 55.37897 | 34 ft | 14 kts | 34° |
| 2026-05-05 12:54 | 25.24525 | 55.37962 | 33 ft | 17 kts | 34° |
| 2026-05-05 12:54 | 25.24634 | 55.38043 | 30 ft | 19 kts | 32° |
| 2026-05-05 12:55 | 25.24722 | 55.38103 | 34 ft | 9 kts | 31° |
| 2026-05-05 12:55 | 25.24775 | 55.38084 | 35 ft | 9 kts | 302° |
| 2026-05-05 12:55 | 25.24832 | 55.37980 | 34 ft | 29 kts | 301° |
| 2026-05-05 12:55 | 25.25048 | 55.37593 | 36 ft | 95 kts | 301° |
| 2026-05-05 12:56 | 25.25512 | 55.36756 | 33 ft | 158 kts | 301° |
| 2026-05-05 12:56 | 25.26164 | 55.35561 | 223 ft | 187 kts | 302° |
| 2026-05-05 12:56 | 25.26812 | 55.34331 | 845 ft | 191 kts | 303° |
| 2026-05-05 12:56 | 25.27493 | 55.33045 | 1322 ft | 197 kts | 303° |
| 2026-05-05 12:57 | 25.28247 | 55.31731 | 1600 ft | 210 kts | 307° |
| 2026-05-05 12:57 | 25.29101 | 55.30361 | 1768 ft | 227 kts | 306° |
| 2026-05-05 12:57 | 25.29939 | 55.28772 | 1904 ft | 248 kts | 303° |
| 2026-05-05 12:57 | 25.30984 | 55.27190 | 2189 ft | 261 kts | 311° |
| 2026-05-05 12:58 | 25.32094 | 55.25545 | 2584 ft | 272 kts | 306° |
| 2026-05-05 12:58 | 25.33174 | 55.23800 | 3266 ft | 278 kts | 306° |
| 2026-05-05 12:58 | 25.34284 | 55.22041 | 4116 ft | 279 kts | 306° |
| 2026-05-05 12:58 | 25.35382 | 55.20241 | 4818 ft | 284 kts | 297° |
| 2026-05-05 12:59 | 25.35859 | 55.18126 | 5471 ft | 285 kts | 269° |
| 2026-05-05 12:59 | 25.35785 | 55.15924 | 6174 ft | 291 kts | 266° |
| 2026-05-05 12:59 | 25.35695 | 55.13682 | 6958 ft | 292 kts | 266° |
| 2026-05-05 13:00 | 25.35514 | 55.09143 | 8533 ft | 297 kts | 267° |
| 2026-05-05 13:00 | 25.35425 | 55.06850 | 9329 ft | 301 kts | 267° |
| 2026-05-05 13:01 | 25.35159 | 54.99708 | 10870 ft | 337 kts | 268° |
| 2026-05-05 13:01 | 25.35062 | 54.97025 | 11054 ft | 361 kts | 268° |
| 2026-05-05 13:01 | 25.34957 | 54.94160 | 11286 ft | 382 kts | 268° |
| 2026-05-05 13:01 | 25.34878 | 54.91203 | 11846 ft | 386 kts | 272° |
| 2026-05-05 13:02 | 25.35373 | 54.88282 | 12263 ft | 391 kts | 289° |
| 2026-05-05 13:02 | 25.36281 | 54.85409 | 12868 ft | 397 kts | 290° |
| 2026-05-05 13:02 | 25.37181 | 54.82513 | 13657 ft | 399 kts | 289° |
| 2026-05-05 13:02 | 25.38051 | 54.79598 | 14391 ft | 400 kts | 288° |
| 2026-05-05 13:03 | 25.38902 | 54.76657 | 15048 ft | 404 kts | 288° |
| 2026-05-05 13:03 | 25.39750 | 54.73683 | 15727 ft | 407 kts | 288° |
| 2026-05-05 13:03 | 25.40604 | 54.70688 | 16393 ft | 410 kts | 288° |
| 2026-05-05 13:03 | 25.41475 | 54.67668 | 17052 ft | 413 kts | 288° |
| 2026-05-05 13:04 | 25.42357 | 54.64620 | 17699 ft | 417 kts | 288° |
| 2026-05-05 13:04 | 25.43245 | 54.61550 | 18296 ft | 421 kts | 288° |
| 2026-05-05 13:04 | 25.44136 | 54.58495 | 18855 ft | 424 kts | 288° |
| 2026-05-05 13:04 | 25.45064 | 54.55342 | 19447 ft | 427 kts | 288° |
| 2026-05-05 13:05 | 25.45975 | 54.52253 | 20029 ft | 429 kts | 288° |
| 2026-05-05 13:05 | 25.46902 | 54.49105 | 20617 ft | 432 kts | 288° |
| 2026-05-05 13:05 | 25.47834 | 54.45937 | 21195 ft | 434 kts | 288° |
| 2026-05-05 13:05 | 25.48770 | 54.42745 | 21764 ft | 437 kts | 288° |
| 2026-05-05 13:06 | 25.49710 | 54.39536 | 22344 ft | 440 kts | 288° |
| 2026-05-05 13:06 | 25.50657 | 54.36299 | 22891 ft | 443 kts | 288° |
| 2026-05-05 13:06 | 25.51606 | 54.33050 | 23417 ft | 446 kts | 288° |
| 2026-05-05 13:06 | 25.52565 | 54.29768 | 23874 ft | 448 kts | 287° |
| 2026-05-05 13:07 | 25.53522 | 54.26486 | 24366 ft | 448 kts | 287° |
| 2026-05-05 13:07 | 25.54482 | 54.23200 | 24844 ft | 450 kts | 287° |
| 2026-05-05 13:07 | 25.55455 | 54.19902 | 25309 ft | 451 kts | 287° |
| 2026-05-05 13:07 | 25.56437 | 54.16590 | 25769 ft | 453 kts | 287° |
| 2026-05-05 13:08 | 25.57421 | 54.13272 | 26208 ft | 454 kts | 287° |
| 2026-05-05 13:08 | 25.58395 | 54.09976 | 26642 ft | 456 kts | 287° |
| 2026-05-05 13:08 | 25.59393 | 54.06590 | 27075 ft | 457 kts | 287° |
| 2026-05-05 13:08 | 25.60352 | 54.03270 | 27491 ft | 459 kts | 286° |
| 2026-05-05 13:09 | 25.61309 | 53.99896 | 27895 ft | 460 kts | 286° |
| 2026-05-05 13:09 | 25.62264 | 53.96508 | 28281 ft | 461 kts | 285° |
| 2026-05-05 13:09 | 25.63221 | 53.93112 | 28649 ft | 463 kts | 285° |
| 2026-05-05 13:09 | 25.64184 | 53.89700 | 28987 ft | 464 kts | 285° |
| 2026-05-05 13:10 | 25.65149 | 53.86285 | 29319 ft | 465 kts | 285° |
| 2026-05-05 13:10 | 25.66120 | 53.82850 | 29653 ft | 466 kts | 285° |
| 2026-05-05 13:10 | 25.67088 | 53.79428 | 30038 ft | 465 kts | 285° |
| 2026-05-05 13:10 | 25.68052 | 53.76015 | 30455 ft | 462 kts | 285° |
| 2026-05-05 13:11 | 25.69006 | 53.72631 | 30876 ft | 459 kts | 285° |
| 2026-05-05 13:11 | 25.69956 | 53.69258 | 31256 ft | 458 kts | 285° |
| 2026-05-05 13:11 | 25.70902 | 53.65887 | 31611 ft | 456 kts | 285° |
| 2026-05-05 13:11 | 25.71842 | 53.62538 | 31982 ft | 455 kts | 285° |
| 2026-05-05 13:12 | 25.72780 | 53.59193 | 32353 ft | 453 kts | 284° |
| 2026-05-05 13:12 | 25.73713 | 53.55863 | 32725 ft | 451 kts | 284° |
| 2026-05-05 13:12 | 25.74642 | 53.52544 | 33090 ft | 450 kts | 284° |
| 2026-05-05 13:12 | 25.75568 | 53.49239 | 33445 ft | 448 kts | 284° |
| 2026-05-05 13:13 | 25.76499 | 53.45940 | 33695 ft | 449 kts | 284° |
| 2026-05-05 13:13 | 25.77437 | 53.42620 | 33723 ft | 452 kts | 284° |
| 2026-05-05 13:13 | 25.79331 | 53.35919 | 33763 ft | 458 kts | 284° |
| 2026-05-05 13:14 | 25.81225 | 53.29194 | 33767 ft | 461 kts | 284° |
| 2026-05-05 13:14 | 25.83139 | 53.22385 | 33763 ft | 461 kts | 284° |
| 2026-05-05 13:15 | 25.85319 | 53.15685 | 33764 ft | 463 kts | 290° |
| 2026-05-05 13:15 | 25.87994 | 53.09197 | 33760 ft | 461 kts | 291° |
| 2026-05-05 13:16 | 25.90650 | 53.02727 | 33760 ft | 459 kts | 290° |
| 2026-05-05 13:16 | 25.93271 | 52.96274 | 33761 ft | 458 kts | 290° |
| 2026-05-05 13:17 | 25.95877 | 52.89828 | 33758 ft | 457 kts | 290° |
| 2026-05-05 13:17 | 25.98479 | 52.83385 | 33762 ft | 457 kts | 290° |
| 2026-05-05 13:18 | 26.01063 | 52.76981 | 33762 ft | 457 kts | 290° |
| 2026-05-05 13:18 | 26.03781 | 52.70528 | 33764 ft | 459 kts | 292° |
| 2026-05-05 13:19 | 26.06676 | 52.64252 | 33762 ft | 459 kts | 292° |
| 2026-05-05 13:19 | 26.09476 | 52.57870 | 33763 ft | 458 kts | 290° |
| 2026-05-05 13:20 | 26.12098 | 52.51413 | 33764 ft | 458 kts | 290° |
| 2026-05-05 13:20 | 26.14721 | 52.44948 | 33764 ft | 458 kts | 290° |
| 2026-05-05 13:21 | 26.17369 | 52.38489 | 33763 ft | 458 kts | 290° |
| 2026-05-05 13:21 | 26.20025 | 52.32032 | 33761 ft | 458 kts | 290° |
| 2026-05-05 13:22 | 26.22677 | 52.25581 | 33759 ft | 458 kts | 290° |
| 2026-05-05 13:22 | 26.24954 | 52.20031 | 33761 ft | 458 kts | 290° |
| 2026-05-05 13:23 | 26.27583 | 52.13611 | 33763 ft | 457 kts | 290° |
| 2026-05-05 13:23 | 26.30217 | 52.07169 | 33761 ft | 457 kts | 290° |
| 2026-05-05 13:24 | 26.32845 | 52.00733 | 33760 ft | 456 kts | 289° |
| 2026-05-05 13:24 | 26.35472 | 51.94290 | 33762 ft | 455 kts | 289° |
| 2026-05-05 13:25 | 26.38086 | 51.87866 | 33760 ft | 454 kts | 289° |
| 2026-05-05 13:25 | 26.40694 | 51.81447 | 33759 ft | 453 kts | 289° |
| 2026-05-05 13:26 | 26.43290 | 51.75049 | 33763 ft | 452 kts | 289° |
| 2026-05-05 13:26 | 26.45877 | 51.68662 | 33761 ft | 452 kts | 289° |
| 2026-05-05 13:27 | 26.48344 | 51.62280 | 33761 ft | 448 kts | 286° |
| 2026-05-05 13:27 | 26.50503 | 51.55761 | 33760 ft | 447 kts | 285° |
| 2026-05-05 13:28 | 26.52643 | 51.49240 | 33755 ft | 447 kts | 285° |
| 2026-05-05 13:28 | 26.54795 | 51.42728 | 33753 ft | 447 kts | 285° |
| 2026-05-05 13:29 | 26.56950 | 51.36215 | 33756 ft | 447 kts | 285° |
| 2026-05-05 13:29 | 26.59102 | 51.29699 | 33751 ft | 447 kts | 285° |
| 2026-05-05 13:30 | 26.61257 | 51.23177 | 33757 ft | 447 kts | 285° |
| 2026-05-05 13:30 | 26.63400 | 51.16695 | 33762 ft | 447 kts | 285° |
| 2026-05-05 13:31 | 26.65552 | 51.10167 | 33755 ft | 447 kts | 285° |
| 2026-05-05 13:31 | 26.67696 | 51.03649 | 33748 ft | 447 kts | 285° |
| 2026-05-05 13:32 | 26.69825 | 50.97123 | 33746 ft | 446 kts | 285° |
| 2026-05-05 13:32 | 26.71565 | 50.91691 | 33751 ft | 446 kts | 285° |
| 2026-05-05 13:33 | 26.73656 | 50.85153 | 33753 ft | 446 kts | 285° |
| 2026-05-05 13:33 | 26.75750 | 50.78611 | 33746 ft | 446 kts | 285° |
| 2026-05-05 13:34 | 26.77843 | 50.72066 | 33751 ft | 446 kts | 285° |
| 2026-05-05 13:34 | 26.80469 | 50.65730 | 33752 ft | 453 kts | 294° |
| 2026-05-05 13:35 | 26.83906 | 50.59823 | 33747 ft | 460 kts | 301° |
| 2026-05-05 13:35 | 26.87997 | 50.54288 | 33741 ft | 462 kts | 303° |
| 2026-05-05 13:36 | 26.92096 | 50.48750 | 33748 ft | 462 kts | 304° |
| 2026-05-05 13:36 | 26.96492 | 50.43455 | 33749 ft | 465 kts | 306° |
| 2026-05-05 13:37 | 27.00949 | 50.38214 | 33742 ft | 464 kts | 306° |
| 2026-05-05 13:37 | 27.05372 | 50.32944 | 33742 ft | 463 kts | 306° |
| 2026-05-05 13:38 | 27.09753 | 50.27663 | 33742 ft | 462 kts | 305° |
| 2026-05-05 13:38 | 27.14130 | 50.22383 | 33742 ft | 461 kts | 306° |
| 2026-05-05 13:39 | 27.18920 | 50.17557 | 33736 ft | 472 kts | 315° |
| 2026-05-05 13:39 | 27.24240 | 50.13220 | 33740 ft | 472 kts | 316° |
| 2026-05-05 13:40 | 27.29545 | 50.08866 | 33735 ft | 472 kts | 315° |
| 2026-05-05 13:40 | 27.34819 | 50.04486 | 33740 ft | 472 kts | 315° |
| 2026-05-05 13:41 | 27.40044 | 50.00030 | 33738 ft | 470 kts | 314° |
| 2026-05-05 13:41 | 27.45183 | 49.95485 | 33742 ft | 470 kts | 313° |
| 2026-05-05 13:42 | 27.50324 | 49.90935 | 33742 ft | 470 kts | 313° |
| 2026-05-05 13:42 | 27.55479 | 49.86392 | 33738 ft | 470 kts | 313° |
| 2026-05-05 13:43 | 27.60640 | 49.81848 | 33719 ft | 471 kts | 313° |
| 2026-05-05 13:43 | 27.65800 | 49.77298 | 33731 ft | 471 kts | 313° |
| 2026-05-05 13:44 | 27.70955 | 49.72745 | 33735 ft | 471 kts | 313° |
| 2026-05-05 13:44 | 27.76081 | 49.68212 | 33731 ft | 471 kts | 313° |
| 2026-05-05 13:45 | 27.81235 | 49.63636 | 33730 ft | 471 kts | 313° |
| 2026-05-05 13:45 | 27.86369 | 49.59043 | 33726 ft | 470 kts | 313° |
| 2026-05-05 13:46 | 27.91498 | 49.54448 | 33727 ft | 470 kts | 313° |
| 2026-05-05 13:46 | 27.96596 | 49.49879 | 33727 ft | 470 kts | 313° |
| 2026-05-05 13:47 | 28.01717 | 49.45286 | 33731 ft | 470 kts | 313° |
| 2026-05-05 13:47 | 28.06825 | 49.40667 | 33731 ft | 469 kts | 312° |
| 2026-05-05 13:48 | 28.11914 | 49.36020 | 33729 ft | 469 kts | 312° |
| 2026-05-05 13:48 | 28.16995 | 49.31380 | 33719 ft | 469 kts | 312° |
| 2026-05-05 13:49 | 28.22077 | 49.26738 | 33724 ft | 469 kts | 312° |
| 2026-05-05 13:49 | 28.27156 | 49.22094 | 33725 ft | 469 kts | 312° |
| 2026-05-05 13:50 | 28.32184 | 49.17457 | 33727 ft | 469 kts | 312° |
| 2026-05-05 13:50 | 28.37243 | 49.12781 | 33723 ft | 469 kts | 312° |
| 2026-05-05 13:51 | 28.42486 | 49.08310 | 33727 ft | 475 kts | 317° |
| 2026-05-05 13:51 | 28.48000 | 49.04135 | 33725 ft | 476 kts | 317° |
| 2026-05-05 13:52 | 28.53519 | 48.99954 | 33722 ft | 476 kts | 317° |
| 2026-05-05 13:52 | 28.59024 | 48.95744 | 33723 ft | 476 kts | 317° |
| 2026-05-05 13:53 | 28.64521 | 48.91523 | 33719 ft | 476 kts | 317° |
| 2026-05-05 13:53 | 28.70016 | 48.87297 | 33723 ft | 477 kts | 317° |
| 2026-05-05 13:54 | 28.75515 | 48.83065 | 33719 ft | 477 kts | 317° |
| 2026-05-05 13:54 | 28.81015 | 48.78829 | 33725 ft | 477 kts | 317° |
| 2026-05-05 13:55 | 28.86519 | 48.74604 | 33720 ft | 477 kts | 317° |
| 2026-05-05 13:55 | 28.92035 | 48.70374 | 33721 ft | 477 kts | 317° |
| 2026-05-05 13:56 | 28.97504 | 48.66171 | 33718 ft | 477 kts | 317° |
| 2026-05-05 13:56 | 29.03011 | 48.61931 | 33719 ft | 477 kts | 317° |
| 2026-05-05 13:57 | 29.08510 | 48.57691 | 33723 ft | 477 kts | 317° |
| 2026-05-05 13:57 | 29.14012 | 48.53443 | 33720 ft | 477 kts | 317° |
| 2026-05-05 13:58 | 29.19506 | 48.49196 | 33714 ft | 477 kts | 317° |
| 2026-05-05 13:58 | 29.25011 | 48.44934 | 33723 ft | 477 kts | 317° |
| 2026-05-05 13:59 | 29.33254 | 48.38542 | 33720 ft | 477 kts | 317° |
| 2026-05-05 14:00 | 29.40566 | 48.32862 | 33714 ft | 477 kts | 317° |
| 2026-05-05 14:00 | 29.47153 | 48.28080 | 33720 ft | 482 kts | 321° |
| 2026-05-05 14:01 | 29.52959 | 48.24302 | 33717 ft | 483 kts | 322° |
| 2026-05-05 14:01 | 29.58815 | 48.20498 | 33720 ft | 484 kts | 322° |
| 2026-05-05 14:02 | 29.64665 | 48.16657 | 33713 ft | 484 kts | 321° |
| 2026-05-05 14:02 | 29.70505 | 48.12803 | 33717 ft | 484 kts | 321° |
| 2026-05-05 14:03 | 29.76351 | 48.08939 | 33709 ft | 485 kts | 321° |
| 2026-05-05 14:03 | 29.82205 | 48.05067 | 33717 ft | 485 kts | 322° |
| 2026-05-05 14:04 | 29.88061 | 48.01188 | 33721 ft | 486 kts | 322° |
| 2026-05-05 14:04 | 29.93931 | 47.97295 | 33716 ft | 486 kts | 322° |
| 2026-05-05 14:05 | 29.99700 | 47.93285 | 33717 ft | 480 kts | 316° |
| 2026-05-05 14:05 | 30.04742 | 47.88390 | 33721 ft | 469 kts | 307° |
| 2026-05-05 14:06 | 30.09044 | 47.82822 | 33713 ft | 463 kts | 303° |
| 2026-05-05 14:06 | 30.13199 | 47.77199 | 33724 ft | 463 kts | 303° |
| 2026-05-05 14:07 | 30.17392 | 47.71555 | 33723 ft | 463 kts | 303° |
| 2026-05-05 14:07 | 30.21597 | 47.65924 | 33726 ft | 462 kts | 303° |
| 2026-05-05 14:08 | 30.25799 | 47.60300 | 33731 ft | 462 kts | 303° |
| 2026-05-05 14:08 | 30.29996 | 47.54673 | 33738 ft | 462 kts | 303° |
| 2026-05-05 14:09 | 30.34187 | 47.49044 | 33734 ft | 462 kts | 303° |
| 2026-05-05 14:09 | 30.38380 | 47.43404 | 33741 ft | 461 kts | 302° |
| 2026-05-05 14:10 | 30.42562 | 47.37771 | 33739 ft | 461 kts | 302° |
| 2026-05-05 14:10 | 30.46744 | 47.32130 | 33739 ft | 461 kts | 302° |
| 2026-05-05 14:11 | 30.50893 | 47.26526 | 33741 ft | 461 kts | 302° |
| 2026-05-05 14:11 | 30.55062 | 47.20901 | 33740 ft | 461 kts | 303° |
| 2026-05-05 14:12 | 30.59770 | 47.15726 | 33736 ft | 472 kts | 312° |
| 2026-05-05 14:12 | 30.64912 | 47.10981 | 33745 ft | 472 kts | 313° |
| 2026-05-05 14:13 | 30.70053 | 47.06236 | 33748 ft | 471 kts | 312° |
| 2026-05-05 14:13 | 30.75168 | 47.01472 | 33743 ft | 471 kts | 312° |
| 2026-05-05 14:14 | 30.80264 | 46.96699 | 33742 ft | 470 kts | 312° |
| 2026-05-05 14:14 | 30.85350 | 46.91927 | 33745 ft | 470 kts | 312° |
| 2026-05-05 14:15 | 30.90438 | 46.87145 | 33747 ft | 469 kts | 311° |
| 2026-05-05 14:15 | 30.95519 | 46.82365 | 33752 ft | 470 kts | 311° |
| 2026-05-05 14:16 | 31.00606 | 46.77573 | 33752 ft | 470 kts | 311° |
| 2026-05-05 14:16 | 31.05656 | 46.72809 | 33754 ft | 470 kts | 311° |
| 2026-05-05 14:17 | 31.10742 | 46.68005 | 33755 ft | 470 kts | 311° |
| 2026-05-05 14:17 | 31.15824 | 46.63197 | 33761 ft | 470 kts | 311° |
| 2026-05-05 14:18 | 31.20908 | 46.58381 | 33765 ft | 471 kts | 311° |
| 2026-05-05 14:18 | 31.25992 | 46.53558 | 33768 ft | 471 kts | 311° |
| 2026-05-05 14:19 | 31.31072 | 46.48732 | 33766 ft | 471 kts | 311° |
| 2026-05-05 14:19 | 31.36158 | 46.43892 | 33775 ft | 471 kts | 311° |
| 2026-05-05 14:20 | 31.41239 | 46.39051 | 33780 ft | 471 kts | 311° |
| 2026-05-05 14:20 | 31.46323 | 46.34200 | 33782 ft | 471 kts | 311° |
| 2026-05-05 14:21 | 31.50544 | 46.30167 | 33791 ft | 471 kts | 311° |
| 2026-05-05 14:21 | 31.56450 | 46.24516 | 33800 ft | 471 kts | 311° |
| 2026-05-05 14:22 | 31.60706 | 46.20437 | 33789 ft | 471 kts | 311° |
| 2026-05-05 14:22 | 31.65780 | 46.15569 | 33795 ft | 471 kts | 311° |
| 2026-05-05 14:23 | 31.70851 | 46.10694 | 33806 ft | 471 kts | 310° |
| 2026-05-05 14:23 | 31.75888 | 46.05844 | 33810 ft | 471 kts | 310° |
| 2026-05-05 14:24 | 31.80905 | 46.00892 | 33821 ft | 470 kts | 310° |
| 2026-05-05 14:24 | 31.85885 | 45.95923 | 33813 ft | 470 kts | 309° |
| 2026-05-05 14:25 | 31.90870 | 45.90950 | 33816 ft | 470 kts | 309° |
| 2026-05-05 14:25 | 31.95856 | 45.85981 | 33810 ft | 469 kts | 309° |
| 2026-05-05 14:26 | 32.00844 | 45.81007 | 33814 ft | 469 kts | 309° |
| 2026-05-05 14:26 | 32.05785 | 45.76072 | 33823 ft | 468 kts | 309° |
| 2026-05-05 14:27 | 32.10751 | 45.71104 | 33828 ft | 468 kts | 309° |
| 2026-05-05 14:27 | 32.15711 | 45.66134 | 33824 ft | 468 kts | 309° |
| 2026-05-05 14:28 | 32.20674 | 45.61154 | 33829 ft | 467 kts | 309° |
| 2026-05-05 14:28 | 32.25626 | 45.56178 | 33833 ft | 467 kts | 309° |
| 2026-05-05 14:29 | 32.30687 | 45.51323 | 33835 ft | 476 kts | 315° |
| 2026-05-05 14:29 | 32.36568 | 45.47431 | 33844 ft | 491 kts | 324° |
| 2026-05-05 14:30 | 32.43040 | 45.44495 | 33833 ft | 500 kts | 329° |
| 2026-05-05 14:30 | 32.49611 | 45.41773 | 33841 ft | 501 kts | 330° |
| 2026-05-05 14:31 | 32.56191 | 45.39027 | 33845 ft | 501 kts | 329° |
| 2026-05-05 14:31 | 32.62756 | 45.36240 | 33845 ft | 501 kts | 329° |
| 2026-05-05 14:32 | 32.69297 | 45.33438 | 33850 ft | 502 kts | 329° |
| 2026-05-05 14:32 | 32.75868 | 45.30618 | 33851 ft | 503 kts | 329° |
| 2026-05-05 14:33 | 32.82453 | 45.27789 | 33851 ft | 503 kts | 329° |
| 2026-05-05 14:33 | 32.89044 | 45.24955 | 33860 ft | 504 kts | 329° |
| 2026-05-05 14:34 | 32.95639 | 45.22115 | 33857 ft | 504 kts | 329° |
| 2026-05-05 14:34 | 33.02244 | 45.19266 | 33868 ft | 505 kts | 329° |
| 2026-05-05 14:35 | 33.08854 | 45.16410 | 33857 ft | 505 kts | 329° |
| 2026-05-05 14:35 | 33.15465 | 45.13550 | 33857 ft | 506 kts | 329° |
| 2026-05-05 14:36 | 33.22045 | 45.10698 | 33867 ft | 506 kts | 329° |
| 2026-05-05 14:36 | 33.28718 | 45.07801 | 33868 ft | 507 kts | 329° |
| 2026-05-05 14:37 | 33.35359 | 45.04913 | 33871 ft | 508 kts | 329° |
| 2026-05-05 14:37 | 33.41969 | 45.02034 | 33869 ft | 509 kts | 329° |
| 2026-05-05 14:38 | 33.48635 | 44.99126 | 33865 ft | 510 kts | 329° |
| 2026-05-05 14:38 | 33.55314 | 44.96208 | 33857 ft | 511 kts | 329° |
| 2026-05-05 14:39 | 33.61993 | 44.93285 | 33853 ft | 511 kts | 329° |
| 2026-05-05 14:39 | 33.68688 | 44.90350 | 33848 ft | 512 kts | 329° |
| 2026-05-05 14:40 | 33.75373 | 44.87414 | 33843 ft | 512 kts | 328° |
| 2026-05-05 14:40 | 33.82074 | 44.84467 | 33836 ft | 513 kts | 328° |
| 2026-05-05 14:41 | 33.88778 | 44.81514 | 33841 ft | 513 kts | 328° |
| 2026-05-05 14:41 | 33.95480 | 44.78556 | 33844 ft | 513 kts | 328° |
| 2026-05-05 14:42 | 34.02177 | 44.75595 | 33842 ft | 513 kts | 328° |
| 2026-05-05 14:42 | 34.08884 | 44.72625 | 33831 ft | 513 kts | 328° |
| 2026-05-05 14:43 | 34.15587 | 44.69652 | 33841 ft | 513 kts | 328° |
| 2026-05-05 14:43 | 34.22255 | 44.66689 | 33835 ft | 514 kts | 328° |
| 2026-05-05 14:44 | 34.28971 | 44.63700 | 33840 ft | 514 kts | 328° |
| 2026-05-05 14:44 | 34.35697 | 44.60701 | 33836 ft | 515 kts | 328° |
| 2026-05-05 14:45 | 34.42432 | 44.57693 | 33832 ft | 515 kts | 328° |
| 2026-05-05 14:45 | 34.49161 | 44.54682 | 33841 ft | 516 kts | 328° |
| 2026-05-05 14:46 | 34.55906 | 44.51659 | 33840 ft | 517 kts | 328° |
| 2026-05-05 14:46 | 34.62657 | 44.48629 | 33823 ft | 517 kts | 328° |
| 2026-05-05 14:47 | 34.69415 | 44.45590 | 33829 ft | 517 kts | 328° |
| 2026-05-05 14:47 | 34.76169 | 44.42548 | 33833 ft | 518 kts | 328° |
| 2026-05-05 14:48 | 34.82883 | 44.39518 | 33829 ft | 518 kts | 328° |
| 2026-05-05 14:48 | 34.89649 | 44.36459 | 33842 ft | 520 kts | 328° |
| 2026-05-05 14:49 | 34.93045 | 44.34920 | 34023 ft | 521 kts | 328° |
| 2026-05-05 14:49 | 34.96451 | 44.33378 | 34334 ft | 519 kts | 329° |
| 2026-05-05 14:49 | 34.99829 | 44.31849 | 34632 ft | 518 kts | 329° |
| 2026-05-05 14:49 | 35.03203 | 44.30319 | 34892 ft | 517 kts | 329° |
| 2026-05-05 14:50 | 35.06576 | 44.28787 | 35111 ft | 517 kts | 329° |
| 2026-05-05 14:50 | 35.09947 | 44.27253 | 35336 ft | 517 kts | 329° |
| 2026-05-05 14:50 | 35.13318 | 44.25719 | 35568 ft | 517 kts | 329° |
| 2026-05-05 14:50 | 35.16692 | 44.24181 | 35723 ft | 518 kts | 329° |
| 2026-05-05 14:51 | 35.23472 | 44.21084 | 35814 ft | 520 kts | 329° |
| 2026-05-05 14:51 | 35.30230 | 44.18002 | 35808 ft | 517 kts | 329° |
| 2026-05-05 14:52 | 35.36951 | 44.14928 | 35816 ft | 515 kts | 329° |
| 2026-05-05 14:52 | 35.43670 | 44.11845 | 35812 ft | 515 kts | 329° |
| 2026-05-05 14:53 | 35.50390 | 44.08756 | 35810 ft | 516 kts | 329° |
| 2026-05-05 14:53 | 35.57123 | 44.05656 | 35820 ft | 517 kts | 329° |
| 2026-05-05 14:54 | 35.63869 | 44.02545 | 35805 ft | 519 kts | 329° |
| 2026-05-05 14:54 | 35.70599 | 43.99437 | 35818 ft | 520 kts | 329° |
| 2026-05-05 14:55 | 35.77375 | 43.96302 | 35814 ft | 521 kts | 330° |
| 2026-05-05 14:55 | 35.84180 | 43.93149 | 35816 ft | 522 kts | 330° |
| 2026-05-05 14:56 | 35.90970 | 43.89998 | 35821 ft | 521 kts | 330° |
| 2026-05-05 14:56 | 35.97739 | 43.86850 | 35831 ft | 520 kts | 330° |
| 2026-05-05 14:57 | 36.04510 | 43.83693 | 35846 ft | 520 kts | 330° |
| 2026-05-05 14:57 | 36.11266 | 43.80538 | 35850 ft | 519 kts | 330° |
| 2026-05-05 14:58 | 36.18036 | 43.77370 | 35858 ft | 520 kts | 330° |
| 2026-05-05 14:58 | 36.24798 | 43.74201 | 35845 ft | 520 kts | 330° |
| 2026-05-05 14:59 | 36.31567 | 43.71023 | 35818 ft | 520 kts | 330° |
| 2026-05-05 14:59 | 36.38336 | 43.67839 | 35822 ft | 520 kts | 330° |
| 2026-05-05 15:00 | 36.43971 | 43.65182 | 35829 ft | 521 kts | 330° |
| 2026-05-05 15:00 | 36.51901 | 43.61438 | 35828 ft | 522 kts | 330° |
| 2026-05-05 15:01 | 36.58702 | 43.58221 | 35838 ft | 523 kts | 331° |
| 2026-05-05 15:01 | 36.65461 | 43.55018 | 35841 ft | 523 kts | 331° |
| 2026-05-05 15:02 | 36.72271 | 43.51784 | 35845 ft | 524 kts | 331° |
| 2026-05-05 15:02 | 36.79081 | 43.48544 | 35868 ft | 524 kts | 331° |
| 2026-05-05 15:03 | 36.85883 | 43.45302 | 35876 ft | 524 kts | 331° |
| 2026-05-05 15:03 | 36.92705 | 43.42044 | 35866 ft | 523 kts | 331° |
| 2026-05-05 15:04 | 36.99458 | 43.38814 | 35897 ft | 523 kts | 331° |
| 2026-05-05 15:04 | 37.06291 | 43.35537 | 35892 ft | 522 kts | 331° |
| 2026-05-05 15:05 | 37.16472 | 43.30641 | 35905 ft | 525 kts | 332° |
| 2026-05-05 15:06 | 37.23274 | 43.27367 | 35924 ft | 523 kts | 332° |
| 2026-05-05 15:06 | 37.30035 | 43.24062 | 35909 ft | 516 kts | 328° |
| 2026-05-05 15:06 | 37.33082 | 43.21821 | 35941 ft | 500 kts | 314° |
| 2026-05-05 15:07 | 37.35633 | 43.18935 | 35900 ft | 487 kts | 305° |
| 2026-05-05 15:07 | 37.37712 | 43.15643 | 35913 ft | 477 kts | 294° |
| 2026-05-05 15:07 | 37.39276 | 43.12039 | 35955 ft | 467 kts | 290° |
| 2026-05-05 15:08 | 37.42272 | 43.04728 | 35923 ft | 472 kts | 290° |
| 2026-05-05 15:08 | 37.44821 | 42.98621 | 35911 ft | 476 kts | 290° |
| 2026-05-05 15:09 | 37.47929 | 42.91274 | 35929 ft | 475 kts | 291° |
| 2026-05-05 15:09 | 37.51051 | 42.83901 | 35930 ft | 478 kts | 291° |
| 2026-05-05 15:10 | 37.54186 | 42.76472 | 35909 ft | 480 kts | 291° |
| 2026-05-05 15:10 | 37.57312 | 42.69046 | 35912 ft | 480 kts | 291° |
| 2026-05-05 15:11 | 37.60448 | 42.61595 | 35906 ft | 480 kts | 291° |
| 2026-05-05 15:11 | 37.63562 | 42.54221 | 35898 ft | 479 kts | 291° |
| 2026-05-05 15:12 | 37.66692 | 42.46793 | 35894 ft | 479 kts | 291° |
| 2026-05-05 15:12 | 37.69816 | 42.39356 | 35893 ft | 479 kts | 291° |
| 2026-05-05 15:13 | 37.72937 | 42.31909 | 35875 ft | 479 kts | 291° |
| 2026-05-05 15:13 | 37.76040 | 42.24484 | 35893 ft | 478 kts | 291° |
| 2026-05-05 15:14 | 37.79144 | 42.17040 | 35859 ft | 479 kts | 292° |
| 2026-05-05 15:14 | 37.82223 | 42.09636 | 35868 ft | 479 kts | 291° |
| 2026-05-05 15:15 | 37.85324 | 42.02164 | 35886 ft | 480 kts | 292° |
| 2026-05-05 15:15 | 37.88425 | 41.94679 | 35863 ft | 481 kts | 292° |
| 2026-05-05 15:16 | 37.91835 | 41.87333 | 35863 ft | 489 kts | 300° |
| 2026-05-05 15:16 | 37.96213 | 41.80659 | 35865 ft | 495 kts | 306° |
| 2026-05-05 15:17 | 38.00823 | 41.74160 | 35870 ft | 496 kts | 306° |
| 2026-05-05 15:17 | 38.05419 | 41.67624 | 35877 ft | 496 kts | 306° |
| 2026-05-05 15:18 | 38.09986 | 41.61049 | 35866 ft | 496 kts | 306° |
| 2026-05-05 15:18 | 38.14536 | 41.54464 | 35881 ft | 496 kts | 306° |
| 2026-05-05 15:19 | 38.19081 | 41.47875 | 35888 ft | 495 kts | 306° |
| 2026-05-05 15:19 | 38.23621 | 41.41280 | 35889 ft | 495 kts | 306° |
| 2026-05-05 15:20 | 38.28152 | 41.34691 | 35906 ft | 496 kts | 306° |
| 2026-05-05 15:20 | 38.32695 | 41.28068 | 35902 ft | 496 kts | 306° |
| 2026-05-05 15:21 | 38.37198 | 41.21490 | 35910 ft | 496 kts | 306° |
| 2026-05-05 15:21 | 38.41726 | 41.14861 | 35918 ft | 496 kts | 306° |
| 2026-05-05 15:22 | 38.46254 | 41.08218 | 35929 ft | 496 kts | 306° |
| 2026-05-05 15:22 | 38.50715 | 41.01496 | 35927 ft | 496 kts | 305° |
| 2026-05-05 15:23 | 38.55127 | 40.94716 | 35925 ft | 497 kts | 305° |
| 2026-05-05 15:23 | 38.59551 | 40.87936 | 35921 ft | 497 kts | 305° |
| 2026-05-05 15:24 | 38.63980 | 40.81158 | 35917 ft | 496 kts | 306° |
| 2026-05-05 15:24 | 38.68433 | 40.74419 | 35939 ft | 496 kts | 306° |
| 2026-05-05 15:25 | 38.72907 | 40.67669 | 35939 ft | 497 kts | 306° |
| 2026-05-05 15:25 | 38.77382 | 40.60892 | 35941 ft | 499 kts | 306° |
| 2026-05-05 15:26 | 38.81854 | 40.54094 | 35937 ft | 499 kts | 306° |
| 2026-05-05 15:26 | 38.86326 | 40.47281 | 35926 ft | 499 kts | 306° |
| 2026-05-05 15:27 | 38.90799 | 40.40450 | 35950 ft | 499 kts | 306° |
| 2026-05-05 15:27 | 38.95266 | 40.33615 | 35940 ft | 499 kts | 306° |
| 2026-05-05 15:28 | 38.99727 | 40.26774 | 35946 ft | 499 kts | 306° |
| 2026-05-05 15:28 | 39.04183 | 40.19927 | 35958 ft | 499 kts | 306° |
| 2026-05-05 15:29 | 39.08636 | 40.13068 | 35961 ft | 500 kts | 306° |
| 2026-05-05 15:29 | 39.13092 | 40.06190 | 35963 ft | 501 kts | 306° |
| 2026-05-05 15:30 | 39.17549 | 39.99297 | 35967 ft | 501 kts | 306° |
| 2026-05-05 15:30 | 39.22013 | 39.92380 | 35968 ft | 502 kts | 306° |
| 2026-05-05 15:31 | 39.26444 | 39.85506 | 35971 ft | 502 kts | 306° |
| 2026-05-05 15:31 | 39.30907 | 39.78564 | 35960 ft | 502 kts | 307° |
| 2026-05-05 15:32 | 39.35364 | 39.71616 | 35958 ft | 502 kts | 306° |
| 2026-05-05 15:32 | 39.39819 | 39.64656 | 35961 ft | 502 kts | 306° |
| 2026-05-05 15:33 | 39.44267 | 39.57690 | 35957 ft | 503 kts | 306° |
| 2026-05-05 15:33 | 39.48720 | 39.50702 | 35944 ft | 503 kts | 306° |
| 2026-05-05 15:34 | 39.53157 | 39.43698 | 35945 ft | 503 kts | 306° |
| 2026-05-05 15:34 | 39.57534 | 39.36643 | 35930 ft | 501 kts | 306° |
| 2026-05-05 15:35 | 39.61892 | 39.29587 | 35950 ft | 501 kts | 306° |
| 2026-05-05 15:35 | 39.66257 | 39.22523 | 35951 ft | 502 kts | 306° |
| 2026-05-05 15:36 | 39.70630 | 39.15440 | 35943 ft | 502 kts | 306° |
| 2026-05-05 15:36 | 39.74984 | 39.08405 | 35943 ft | 503 kts | 306° |
| 2026-05-05 15:37 | 39.79421 | 39.01346 | 35939 ft | 504 kts | 306° |
| 2026-05-05 15:37 | 39.83860 | 38.94281 | 35940 ft | 505 kts | 306° |
| 2026-05-05 15:38 | 39.88295 | 38.87189 | 35929 ft | 505 kts | 306° |
| 2026-05-05 15:38 | 39.92714 | 38.80096 | 35929 ft | 505 kts | 306° |
| 2026-05-05 15:39 | 39.97141 | 38.72973 | 35934 ft | 505 kts | 306° |
| 2026-05-05 15:39 | 40.01557 | 38.65852 | 35935 ft | 505 kts | 306° |
| 2026-05-05 15:40 | 40.05964 | 38.58730 | 35934 ft | 505 kts | 306° |
| 2026-05-05 15:40 | 40.10351 | 38.51623 | 35944 ft | 505 kts | 306° |
| 2026-05-05 15:41 | 40.14754 | 38.44475 | 35940 ft | 505 kts | 307° |
| 2026-05-05 15:41 | 40.19122 | 38.37367 | 35947 ft | 504 kts | 307° |
| 2026-05-05 15:42 | 40.23503 | 38.30220 | 35955 ft | 504 kts | 307° |
| 2026-05-05 15:42 | 40.27886 | 38.23056 | 35950 ft | 503 kts | 307° |
| 2026-05-05 15:43 | 40.32038 | 38.15708 | 35963 ft | 501 kts | 299° |
| 2026-05-05 15:43 | 40.35150 | 38.07597 | 35962 ft | 497 kts | 289° |
| 2026-05-05 15:44 | 40.37637 | 37.99139 | 35968 ft | 497 kts | 289° |
| 2026-05-05 15:44 | 40.40118 | 37.90676 | 35981 ft | 497 kts | 289° |
| 2026-05-05 15:45 | 40.42642 | 37.82216 | 35992 ft | 498 kts | 289° |
| 2026-05-05 15:45 | 40.45170 | 37.73757 | 35993 ft | 498 kts | 289° |
| 2026-05-05 15:46 | 40.47678 | 37.65326 | 36009 ft | 498 kts | 289° |
| 2026-05-05 15:46 | 40.50194 | 37.56839 | 36016 ft | 499 kts | 290° |
| 2026-05-05 15:47 | 40.52711 | 37.48326 | 36023 ft | 499 kts | 290° |
| 2026-05-05 15:47 | 40.55221 | 37.39810 | 36021 ft | 499 kts | 290° |
| 2026-05-05 15:48 | 40.57721 | 37.31296 | 36020 ft | 499 kts | 290° |
| 2026-05-05 15:48 | 40.60213 | 37.22783 | 36028 ft | 498 kts | 290° |
| 2026-05-05 15:49 | 40.62681 | 37.14329 | 36023 ft | 498 kts | 290° |
| 2026-05-05 15:49 | 40.65160 | 37.05803 | 36027 ft | 498 kts | 290° |
| 2026-05-05 15:50 | 40.67629 | 36.97287 | 36026 ft | 497 kts | 290° |
| 2026-05-05 15:50 | 40.70091 | 36.88766 | 36019 ft | 497 kts | 290° |
| 2026-05-05 15:51 | 40.72546 | 36.80242 | 36026 ft | 497 kts | 290° |
| 2026-05-05 15:51 | 40.74994 | 36.71717 | 36023 ft | 497 kts | 290° |
| 2026-05-05 15:52 | 40.77434 | 36.63196 | 36032 ft | 496 kts | 290° |
| 2026-05-05 15:52 | 40.79880 | 36.54668 | 36022 ft | 497 kts | 290° |
| 2026-05-05 15:53 | 40.82319 | 36.46144 | 36021 ft | 496 kts | 290° |
| 2026-05-05 15:53 | 40.84735 | 36.37666 | 36017 ft | 496 kts | 290° |
| 2026-05-05 15:54 | 40.87155 | 36.29142 | 36015 ft | 495 kts | 290° |
| 2026-05-05 15:54 | 40.89567 | 36.20619 | 36017 ft | 495 kts | 290° |
| 2026-05-05 15:55 | 40.91972 | 36.12094 | 36011 ft | 494 kts | 290° |
| 2026-05-05 15:55 | 40.94361 | 36.03577 | 36008 ft | 494 kts | 290° |
| 2026-05-05 15:56 | 40.96698 | 35.95034 | 35998 ft | 493 kts | 290° |
| 2026-05-05 15:56 | 40.99029 | 35.86497 | 35989 ft | 493 kts | 290° |
| 2026-05-05 15:57 | 41.01381 | 35.77988 | 35985 ft | 492 kts | 290° |
| 2026-05-05 15:57 | 41.03347 | 35.70915 | 35980 ft | 492 kts | 291° |
| 2026-05-05 15:58 | 41.05702 | 35.62413 | 35981 ft | 492 kts | 291° |
| 2026-05-05 15:58 | 41.08047 | 35.53901 | 35989 ft | 491 kts | 290° |
| 2026-05-05 15:59 | 41.10383 | 35.45385 | 35987 ft | 491 kts | 290° |
| 2026-05-05 15:59 | 41.12713 | 35.36864 | 35994 ft | 492 kts | 290° |
| 2026-05-05 16:00 | 41.15040 | 35.28321 | 35998 ft | 492 kts | 290° |
| 2026-05-05 16:00 | 41.17361 | 35.19772 | 35996 ft | 492 kts | 290° |
| 2026-05-05 16:01 | 41.19663 | 35.11267 | 35998 ft | 492 kts | 290° |
| 2026-05-05 16:01 | 41.21971 | 35.02707 | 35998 ft | 492 kts | 290° |
| 2026-05-05 16:02 | 41.24277 | 34.94129 | 35994 ft | 492 kts | 290° |
| 2026-05-05 16:02 | 41.26574 | 34.85556 | 35989 ft | 492 kts | 290° |
| 2026-05-05 16:03 | 41.28859 | 34.76995 | 35998 ft | 491 kts | 291° |
| 2026-05-05 16:03 | 41.31139 | 34.68433 | 35994 ft | 490 kts | 291° |
| 2026-05-05 16:04 | 41.33402 | 34.59898 | 36000 ft | 489 kts | 291° |
| 2026-05-05 16:04 | 41.35659 | 34.51358 | 35997 ft | 489 kts | 291° |
| 2026-05-05 16:05 | 41.37906 | 34.42824 | 35995 ft | 488 kts | 291° |
| 2026-05-05 16:05 | 41.40147 | 34.34292 | 36001 ft | 488 kts | 291° |
| 2026-05-05 16:06 | 41.42347 | 34.25795 | 36012 ft | 487 kts | 291° |
| 2026-05-05 16:06 | 41.44540 | 34.17245 | 36011 ft | 487 kts | 291° |
| 2026-05-05 16:07 | 41.46736 | 34.08699 | 36019 ft | 487 kts | 291° |
| 2026-05-05 16:07 | 41.48936 | 34.00156 | 36013 ft | 487 kts | 291° |
| 2026-05-05 16:08 | 41.51130 | 33.91613 | 36015 ft | 486 kts | 291° |
| 2026-05-05 16:08 | 41.53313 | 33.83071 | 36028 ft | 485 kts | 291° |
| 2026-05-05 16:09 | 41.55486 | 33.74538 | 36021 ft | 485 kts | 291° |
| 2026-05-05 16:09 | 41.57652 | 33.66004 | 36028 ft | 485 kts | 291° |
| 2026-05-05 16:10 | 41.59813 | 33.57455 | 36031 ft | 486 kts | 291° |
| 2026-05-05 16:10 | 41.61917 | 33.48930 | 36028 ft | 486 kts | 291° |
| 2026-05-05 16:11 | 41.64076 | 33.40376 | 36050 ft | 485 kts | 291° |
| 2026-05-05 16:12 | 41.68386 | 33.23253 | 36047 ft | 486 kts | 291° |
| 2026-05-05 16:13 | 41.73731 | 33.01767 | 36041 ft | 486 kts | 291° |
| 2026-05-05 16:13 | 41.75829 | 32.93156 | 36044 ft | 487 kts | 291° |
| 2026-05-05 16:14 | 41.80007 | 32.75877 | 36044 ft | 488 kts | 291° |
| 2026-05-05 16:15 | 41.84238 | 32.58645 | 36042 ft | 488 kts | 291° |
| 2026-05-05 16:16 | 41.88434 | 32.41331 | 36042 ft | 488 kts | 290° |
| 2026-05-05 16:17 | 41.91503 | 32.28293 | 36040 ft | 488 kts | 291° |
| 2026-05-05 16:18 | 41.94610 | 32.15276 | 36044 ft | 488 kts | 291° |
| 2026-05-05 16:19 | 41.97692 | 32.02242 | 36042 ft | 488 kts | 290° |
| 2026-05-05 16:19 | 42.00766 | 31.89180 | 36042 ft | 489 kts | 290° |
| 2026-05-05 16:20 | 42.04845 | 31.71712 | 36040 ft | 490 kts | 290° |
| 2026-05-05 16:22 | 42.09914 | 31.49814 | 36044 ft | 490 kts | 290° |
| 2026-05-05 16:23 | 42.13935 | 31.32312 | 36046 ft | 490 kts | 290° |
| 2026-05-05 16:23 | 42.16950 | 31.19144 | 36058 ft | 490 kts | 290° |
| 2026-05-05 16:24 | 42.18950 | 31.10362 | 36036 ft | 490 kts | 290° |
| 2026-05-05 16:25 | 42.21934 | 30.97192 | 36049 ft | 489 kts | 290° |
| 2026-05-05 16:25 | 42.24896 | 30.84036 | 36053 ft | 488 kts | 290° |
| 2026-05-05 16:26 | 42.28820 | 30.66491 | 36054 ft | 488 kts | 290° |
| 2026-05-05 16:27 | 42.30771 | 30.57711 | 36053 ft | 488 kts | 290° |
| 2026-05-05 16:27 | 42.32715 | 30.48931 | 36057 ft | 488 kts | 290° |
| 2026-05-05 16:28 | 42.34655 | 30.40133 | 36058 ft | 488 kts | 290° |
| 2026-05-05 16:28 | 42.36576 | 30.31382 | 36059 ft | 489 kts | 290° |
| 2026-05-05 16:29 | 42.38505 | 30.22560 | 36060 ft | 489 kts | 289° |
| 2026-05-05 16:29 | 42.40430 | 30.13721 | 36061 ft | 490 kts | 289° |
| 2026-05-05 16:30 | 42.42349 | 30.04871 | 36061 ft | 490 kts | 289° |
| 2026-05-05 16:30 | 42.44263 | 29.96015 | 36068 ft | 490 kts | 289° |
| 2026-05-05 16:31 | 42.46676 | 29.87431 | 36062 ft | 485 kts | 300° |
| 2026-05-05 16:31 | 42.50269 | 29.79762 | 36064 ft | 480 kts | 311° |
| 2026-05-05 16:32 | 42.54430 | 29.72676 | 36066 ft | 480 kts | 311° |
| 2026-05-05 16:32 | 42.58614 | 29.65612 | 36066 ft | 481 kts | 311° |
| 2026-05-05 16:33 | 42.62772 | 29.58496 | 36068 ft | 481 kts | 311° |
| 2026-05-05 16:33 | 42.66887 | 29.51383 | 36068 ft | 482 kts | 311° |
| 2026-05-05 16:34 | 42.71019 | 29.44213 | 36071 ft | 482 kts | 311° |
| 2026-05-05 16:34 | 42.75154 | 29.37022 | 36069 ft | 482 kts | 311° |
| 2026-05-05 16:35 | 42.79283 | 29.29827 | 36066 ft | 483 kts | 310° |
| 2026-05-05 16:35 | 42.83413 | 29.22613 | 36066 ft | 483 kts | 310° |
| 2026-05-05 16:36 | 42.87547 | 29.15376 | 36068 ft | 483 kts | 310° |
| 2026-05-05 16:36 | 42.91669 | 29.08140 | 36067 ft | 483 kts | 310° |
| 2026-05-05 16:37 | 42.95790 | 29.00890 | 36071 ft | 483 kts | 310° |
| 2026-05-05 16:37 | 42.99882 | 28.93674 | 36069 ft | 483 kts | 310° |
| 2026-05-05 16:38 | 43.04017 | 28.86362 | 36069 ft | 483 kts | 310° |
| 2026-05-05 16:38 | 43.08092 | 28.79140 | 36071 ft | 483 kts | 310° |
| 2026-05-05 16:39 | 43.12192 | 28.71856 | 36066 ft | 483 kts | 310° |
| 2026-05-05 16:39 | 43.16289 | 28.64558 | 36068 ft | 483 kts | 310° |
| 2026-05-05 16:40 | 43.20379 | 28.57256 | 36070 ft | 483 kts | 309° |
| 2026-05-05 16:40 | 43.24465 | 28.49941 | 36067 ft | 483 kts | 309° |
| 2026-05-05 16:41 | 43.28549 | 28.42613 | 36064 ft | 483 kts | 309° |
| 2026-05-05 16:41 | 43.32623 | 28.35283 | 36064 ft | 483 kts | 309° |
| 2026-05-05 16:42 | 43.36691 | 28.27948 | 36060 ft | 483 kts | 309° |
| 2026-05-05 16:42 | 43.40072 | 28.21835 | 36058 ft | 482 kts | 309° |
| 2026-05-05 16:43 | 43.44784 | 28.13298 | 36049 ft | 482 kts | 309° |
| 2026-05-05 16:43 | 43.48836 | 28.05934 | 36064 ft | 482 kts | 309° |
| 2026-05-05 16:44 | 43.52220 | 27.99772 | 36039 ft | 482 kts | 309° |
| 2026-05-05 16:44 | 43.56232 | 27.92447 | 36039 ft | 482 kts | 309° |
| 2026-05-05 16:45 | 43.60268 | 27.85064 | 36047 ft | 482 kts | 309° |
| 2026-05-05 16:45 | 43.64362 | 27.77829 | 36023 ft | 474 kts | 311° |
| 2026-05-05 16:46 | 43.68532 | 27.70832 | 36020 ft | 470 kts | 311° |
| 2026-05-05 16:46 | 43.72680 | 27.63861 | 36032 ft | 469 kts | 310° |